Time;durP1;ratioP1;P1;durP2;ratioP2;P2;SDS_P1;SDS_P2;PMS_P1;PMS_P2;Temp;Humidity;BMP_temperature;BMP_pressure;BME280_temperature;BME280_humidity;BME280_pressure;Samples;Min_cycle;Max_cycle;Signal;HPM_P1;HPM_P2
2022/08/29 17:22:15;;;;;;;4.07;2.28;;;24.90;56.60;;;;;;5101938;27;20133;-62
2022/08/29 17:24:43;;;;;;;4.15;2.00;;;24.20;56.40;;;;;;5083215;28;20040;-62
2022/08/29 17:27:09;;;;;;;2.92;1.83;;;24.00;57.20;;;;;;5076953;28;20037;-65
2022/08/29 17:29:37;;;;;;;6.40;2.22;;;23.90;57.40;;;;;;5077945;27;20038;-61
2022/08/29 17:32:05;;;;;;;5.63;1.67;;;23.80;57.90;;;;;;5078285;28;20048;-61
2022/08/29 17:34:30;;;;;;;4.85;1.90;;;23.70;57.70;;;;;;5078264;28;20032;-61
2022/08/29 17:36:56;;;;;;;5.45;2.10;;;23.70;57.30;;;;;;5076942;28;20033;-61
2022/08/29 17:39:22;;;;;;;4.00;1.60;;;23.60;57.20;;;;;;5079555;28;20025;-61
2022/08/29 17:41:51;;;;;;;7.22;2.30;;;23.50;57.70;;;;;;5082740;28;20024;-61
2022/08/29 17:44:17;;;;;;;3.78;1.90;;;23.40;58.10;;;;;;5074996;28;20029;-61
2022/08/29 17:46:43;;;;;;;3.30;1.77;;;23.30;58.20;;;;;;5076555;28;20032;-61
2022/08/29 17:49:10;;;;;;;4.97;1.92;;;23.20;58.50;;;;;;5079156;28;20042;-61
2022/08/29 17:51:36;;;;;;;2.67;1.98;;;23.10;58.10;;;;;;5082015;28;20055;-61
2022/08/29 17:54:07;;;;;;;3.67;1.60;;;23.10;59.30;;;;;;5082648;28;20023;-61
2022/08/29 17:56:39;;;;;;;3.72;2.17;;;23.00;59.20;;;;;;5077226;27;20028;-61
2022/08/29 17:59:05;;;;;;;5.38;2.13;;;22.80;58.50;;;;;;5075437;28;20020;-61
2022/08/29 18:01:32;;;;;;;3.45;2.08;;;22.70;58.80;;;;;;5079841;28;20041;-61
2022/08/29 18:03:58;;;;;;;3.13;2.15;;;22.60;59.90;;;;;;5079204;28;20510;-61
2022/08/29 18:06:24;;;;;;;5.38;2.22;;;22.50;59.90;;;;;;5078553;28;20029;-61
2022/08/29 18:08:50;;;;;;;4.65;2.30;;;22.30;60.30;;;;;;5083702;28;20430;-61
2022/08/29 18:11:16;;;;;;;4.72;2.15;;;22.20;60.50;;;;;;5074132;28;20029;-61
2022/08/29 18:13:42;;;;;;;3.95;2.33;;;22.10;64.90;;;;;;5074703;28;20054;-61
2022/08/29 18:16:09;;;;;;;4.85;2.65;;;22.00;65.20;;;;;;5082953;28;20387;-61
2022/08/29 18:18:35;;;;;;;7.55;2.20;;;21.90;67.50;;;;;;5077845;28;20032;-61
2022/08/29 18:21:01;;;;;;;3.78;2.38;;;21.80;67.80;;;;;;5072976;28;20021;-61
2022/08/29 18:23:27;;;;;;;8.68;4.00;;;21.70;67.90;;;;;;5075912;27;20113;-61
2022/08/29 18:25:53;;;;;;;4.78;3.60;;;21.60;69.30;;;;;;5077911;28;20052;-61
2022/08/29 18:28:20;;;;;;;4.72;2.83;;;21.50;70.70;;;;;;5075044;28;20534;-62
2022/08/29 18:30:47;;;;;;;3.67;2.42;;;21.40;73.30;;;;;;5083418;28;20435;-61
2022/08/29 18:33:13;;;;;;;4.00;2.58;;;21.30;75.30;;;;;;5062925;28;20461;-60
2022/08/29 18:35:39;;;;;;;5.40;3.20;;;21.20;77.90;;;;;;5062367;28;20105;-61
2022/08/29 18:38:06;;;;;;;4.75;2.75;;;21.10;80.50;;;;;;5061762;28;20036;-61
2022/08/29 18:40:33;;;;;;;4.10;2.58;;;21.10;85.10;;;;;;5062987;28;20458;-61
2022/08/29 18:43:00;;;;;;;4.88;3.03;;;20.90;89.70;;;;;;5065128;28;20027;-61
2022/08/29 18:45:27;;;;;;;6.72;3.65;;;20.80;92.60;;;;;;5072377;28;20024;-61
2022/08/29 18:47:52;;;;;;;8.48;3.33;;;20.70;96.40;;;;;;5066902;28;20020;-60
2022/08/29 18:50:33;;;;;;;17.35;3.45;;;20.60;99.90;;;;;;5062630;28;20116;-61
2022/08/29 18:53:21;;;;;;;4.82;3.10;;;20.40;99.90;;;;;;5060298;28;20041;-61
2022/08/29 18:55:48;;;;;;;4.53;3.08;;;20.30;99.90;;;;;;5067179;28;20032;-61
2022/08/29 18:58:15;;;;;;;6.30;3.47;;;20.10;99.90;;;;;;5064356;28;20067;-61
2022/08/29 19:00:42;;;;;;;5.63;3.90;;;20.00;99.90;;;;;;5056402;28;20044;-61
2022/08/29 19:03:08;;;;;;;3.95;3.15;;;19.90;99.90;;;;;;5063752;28;20028;-61
2022/08/29 19:05:35;;;;;;;6.40;3.40;;;19.90;99.90;;;;;;5063966;28;20028;-61
2022/08/29 19:08:01;;;;;;;7.20;3.15;;;19.70;99.90;;;;;;5063988;28;20078;-61
2022/08/29 19:10:29;;;;;;;8.60;3.13;;;19.70;99.90;;;;;;5065813;28;20386;-60
2022/08/29 19:12:56;;;;;;;10.23;3.17;;;19.60;99.90;;;;;;5063748;28;20056;-61
2022/08/29 19:15:25;;;;;;;3.80;3.00;;;19.50;99.90;;;;;;5058381;28;20063;-61
2022/08/29 19:17:51;;;;;;;4.03;2.75;;;19.40;99.90;;;;;;5067992;28;20016;-61
2022/08/29 19:23:04;;;;;;;7.40;3.38;;;19.30;99.90;;;;;;5064863;28;20056;-61
2022/08/29 19:25:30;;;;;;;7.38;2.90;;;19.30;99.90;;;;;;5061890;28;20028;-60
2022/08/29 19:27:56;;;;;;;10.55;3.47;;;19.20;99.90;;;;;;5057064;28;20024;-60
2022/08/29 19:30:23;;;;;;;6.30;3.33;;;19.20;99.90;;;;;;5064766;28;20082;-61
2022/08/29 19:32:49;;;;;;;6.72;2.92;;;19.10;99.90;;;;;;5062603;28;20036;-61
2022/08/29 19:35:14;;;;;;;4.63;2.63;;;19.10;99.90;;;;;;5062011;28;20480;-60
2022/08/29 19:37:42;;;;;;;5.18;3.03;;;19.10;99.90;;;;;;5060646;28;20082;-60
2022/08/29 19:40:10;;;;;;;4.90;3.17;;;19.00;99.90;;;;;;5062612;28;20770;-60
2022/08/29 19:42:37;;;;;;;7.40;3.08;;;19.00;99.90;;;;;;5064370;28;20029;-60
2022/08/29 19:45:06;;;;;;;6.03;2.45;;;19.00;99.90;;;;;;5064542;28;20060;-60
2022/08/29 19:47:32;;;;;;;4.55;2.83;;;18.90;99.90;;;;;;5056493;28;20086;-60
2022/08/29 19:49:58;;;;;;;4.95;2.55;;;18.90;99.90;;;;;;5057238;28;20104;-60
2022/08/29 19:52:23;;;;;;;3.45;2.55;;;18.90;99.90;;;;;;5065065;28;20120;-60
2022/08/29 19:54:49;;;;;;;4.20;2.72;;;18.90;99.90;;;;;;5064603;28;20021;-61
2022/08/29 19:57:15;;;;;;;5.70;2.40;;;18.80;99.90;;;;;;5063514;28;20592;-62
2022/08/29 19:59:41;;;;;;;6.88;2.70;;;18.80;99.90;;;;;;5058977;28;20111;-60
2022/08/29 20:02:08;;;;;;;4.65;2.78;;;18.70;99.90;;;;;;5057142;28;20102;-60
2022/08/29 20:04:33;;;;;;;4.18;2.40;;;18.70;99.90;;;;;;5058411;28;20028;-60
2022/08/29 20:06:59;;;;;;;4.95;2.25;;;18.70;99.90;;;;;;5058392;28;20029;-60
2022/08/29 20:09:25;;;;;;;5.47;2.40;;;18.70;99.90;;;;;;5067974;28;20021;-60
2022/08/29 20:11:51;;;;;;;4.93;2.40;;;18.70;99.90;;;;;;5063725;28;20350;-60
2022/08/29 20:14:17;;;;;;;6.22;2.25;;;18.60;99.90;;;;;;5059605;28;20530;-60
2022/08/29 20:16:43;;;;;;;4.63;2.78;;;18.60;99.90;;;;;;5057852;28;20053;-60
2022/08/29 20:19:10;;;;;;;4.28;2.40;;;18.50;99.90;;;;;;5059123;28;20036;-61
2022/08/29 20:21:36;;;;;;;4.97;2.83;;;18.50;99.90;;;;;;5064242;28;20032;-60
2022/08/29 20:24:02;;;;;;;4.38;2.90;;;18.40;99.90;;;;;;5061969;28;20023;-60
2022/08/29 20:26:31;;;;;;;5.13;2.70;;;18.30;99.90;;;;;;5056111;28;20296;-60
2022/08/29 20:28:59;;;;;;;5.07;2.70;;;18.20;99.90;;;;;;5061011;28;20043;-60
2022/08/29 20:31:26;;;;;;;5.70;2.95;;;18.10;99.90;;;;;;5057557;28;20029;-60
2022/08/29 20:33:52;;;;;;;5.10;3.03;;;18.10;99.90;;;;;;5059461;28;20036;-60
2022/08/29 20:39:06;;;;;;;7.65;3.30;;;17.90;99.90;;;;;;5059263;28;20086;-60
2022/08/29 20:41:31;;;;;;;5.22;3.40;;;17.90;99.90;;;;;;5059255;28;20021;-60
2022/08/29 20:43:59;;;;;;;5.10;3.10;;;17.80;99.90;;;;;;5055068;28;20082;-60
2022/08/29 20:46:24;;;;;;;4.88;2.65;;;17.70;99.90;;;;;;5067066;28;20495;-60
2022/08/29 20:48:50;;;;;;;4.95;3.03;;;17.70;99.90;;;;;;5070400;28;20020;-60
2022/08/29 20:51:16;;;;;;;3.83;3.42;;;17.60;99.90;;;;;;5060422;28;20033;-61
2022/08/29 20:53:41;;;;;;;15.98;3.47;;;17.50;99.90;;;;;;5056887;28;20032;-60
2022/08/29 20:56:08;;;;;;;3.80;3.30;;;17.40;99.90;;;;;;5065014;28;20195;-60
2022/08/29 20:58:34;;;;;;;5.78;3.05;;;17.40;99.90;;;;;;5067188;28;20028;-60
2022/08/29 21:01:01;;;;;;;6.38;3.42;;;17.30;99.90;;;;;;5064742;28;20035;-60
2022/08/29 21:06:17;;;;;;;4.60;3.13;;;17.20;99.90;;;;;;5054169;28;20094;-60
2022/08/29 21:08:43;;;;;;;4.82;3.53;;;17.10;99.90;;;;;;5061351;28;20041;-60
2022/08/29 21:11:09;;;;;;;6.53;3.78;;;17.00;99.90;;;;;;5041579;28;20716;-60
2022/08/29 21:13:37;;;;;;;9.18;3.58;;;17.00;99.90;;;;;;5036860;28;20428;-60
2022/08/29 21:16:04;;;;;;;5.07;3.25;;;16.90;99.90;;;;;;5042128;28;20033;-60
2022/08/29 21:18:30;;;;;;;4.03;2.88;;;16.90;99.90;;;;;;5040762;28;20026;-60
2022/08/29 21:20:55;;;;;;;4.97;3.00;;;16.80;99.90;;;;;;5040841;28;20381;-60
2022/08/29 21:23:23;;;;;;;6.97;2.78;;;16.70;99.90;;;;;;5037874;28;20060;-60
2022/08/29 21:25:58;;;;;;;5.47;3.50;;;16.70;99.90;;;;;;5035556;28;20021;-60
2022/08/29 21:28:27;;;;;;;9.05;3.92;;;16.60;99.90;;;;;;5036159;28;20418;-60
2022/08/29 21:30:53;;;;;;;7.57;3.22;;;16.50;99.90;;;;;;5037209;28;20484;-60
2022/08/29 21:33:19;;;;;;;7.90;3.60;;;16.50;99.90;;;;;;5040049;28;20025;-60
2022/08/29 21:35:45;;;;;;;7.47;3.45;;;16.50;99.90;;;;;;5040958;28;20381;-60
2022/08/29 21:38:11;;;;;;;4.78;3.10;;;16.50;99.90;;;;;;5036611;28;20032;-60
2022/08/29 21:40:37;;;;;;;3.22;2.75;;;16.50;99.90;;;;;;5031579;28;20150;-60
2022/08/29 21:43:03;;;;;;;3.38;2.97;;;16.50;99.90;;;;;;5044070;28;20113;-60
2022/08/29 21:45:32;;;;;;;6.95;3.38;;;16.50;99.90;;;;;;5033862;28;20018;-60
2022/08/29 21:47:58;;;;;;;7.28;3.15;;;16.50;99.90;;;;;;5063310;28;20439;-60
2022/08/29 21:50:24;;;;;;;4.20;2.75;;;16.50;99.90;;;;;;5035223;28;20075;-60
2022/08/29 21:52:51;;;;;;;5.13;3.08;;;16.40;99.90;;;;;;5046700;28;20492;-60
2022/08/29 21:55:18;;;;;;;5.65;3.05;;;16.30;99.90;;;;;;5042034;28;20503;-60
2022/08/29 22:00:18;;;;;;;4.05;3.53;;;16.20;99.90;;;;;;5045278;28;20112;-60
2022/08/29 22:02:45;;;;;;;7.07;4.07;;;16.10;99.90;;;;;;5036721;28;20514;-60
2022/08/29 22:05:11;;;;;;;5.93;3.70;;;16.10;99.90;;;;;;5042709;28;20033;-60
2022/08/29 22:07:39;;;;;;;4.88;3.15;;;16.10;99.90;;;;;;5040632;28;20112;-60
2022/08/29 22:10:11;;;;;;;5.70;3.47;;;16.10;99.90;;;;;;5037645;28;20439;-60
2022/08/29 22:12:36;;;;;;;7.25;3.65;;;16.10;99.90;;;;;;5044506;28;20521;-60
2022/08/29 22:17:49;;;;;;;4.63;3.10;;;16.10;99.90;;;;;;4996376;28;20084;-60
2022/08/29 22:20:15;;;;;;;5.53;3.22;;;16.10;99.90;;;;;;5039920;28;20045;-60
2022/08/29 22:22:41;;;;;;;4.82;3.40;;;16.00;99.90;;;;;;5042066;28;20032;-60
2022/08/29 22:25:07;;;;;;;4.70;3.33;;;16.00;99.90;;;;;;5051974;28;20032;-61
2022/08/29 22:27:33;;;;;;;7.90;3.80;;;16.00;99.90;;;;;;5041550;28;20032;-60
2022/08/29 22:29:59;;;;;;;5.97;3.60;;;15.90;99.90;;;;;;5037914;28;20029;-60
2022/08/29 22:32:26;;;;;;;8.20;3.63;;;15.80;99.90;;;;;;5039841;28;20465;-60
2022/08/29 22:34:52;;;;;;;7.68;3.53;;;15.80;99.90;;;;;;5041249;28;20056;-60
2022/08/29 22:37:18;;;;;;;5.55;3.35;;;15.60;99.90;;;;;;5041978;28;20074;-60
2022/08/29 22:39:43;;;;;;;5.28;3.15;;;15.60;99.90;;;;;;5050373;28;20025;-63
2022/08/29 22:42:09;;;;;;;4.82;3.40;;;15.50;99.90;;;;;;5039230;28;20025;-60
2022/08/29 22:44:35;;;;;;;4.53;3.50;;;15.30;99.90;;;;;;5040777;28;20489;-60
2022/08/29 22:47:01;;;;;;;4.65;3.60;;;15.30;99.90;;;;;;5038686;28;20147;-60
2022/08/29 22:49:26;;;;;;;4.30;3.22;;;15.20;99.90;;;;;;5038544;28;20033;-60
2022/08/29 22:51:52;;;;;;;6.72;3.53;;;15.10;99.90;;;;;;5044836;28;20029;-60
2022/08/29 22:54:33;;;;;;;5.53;3.20;;;15.00;99.90;;;;;;5043343;28;20025;-60
2022/08/29 22:57:00;;;;;;;6.25;3.88;;;15.00;99.90;;;;;;5046157;28;20398;-60
2022/08/29 22:59:26;;;;;;;3.95;3.22;;;14.90;99.90;;;;;;5044862;28;20018;-60
2022/08/29 23:01:52;;;;;;;8.77;4.35;;;14.90;99.90;;;;;;5038331;28;20439;-60
2022/08/29 23:04:19;;;;;;;5.05;3.75;;;14.80;99.90;;;;;;5045944;28;20450;-60
2022/08/29 23:06:45;;;;;;;6.57;4.03;;;14.80;99.90;;;;;;5045634;28;20033;-60
2022/08/29 23:09:11;;;;;;;5.18;3.78;;;14.70;99.90;;;;;;5040713;28;20025;-60
2022/08/29 23:11:37;;;;;;;5.90;3.58;;;14.70;99.90;;;;;;5042440;28;20500;-60
2022/08/29 23:14:04;;;;;;;5.57;3.70;;;14.70;99.90;;;;;;5039582;28;20025;-60
2022/08/29 23:16:31;;;;;;;6.35;3.70;;;14.60;99.90;;;;;;5040493;28;20050;-60
2022/08/29 23:18:59;;;;;;;8.02;3.97;;;14.60;99.90;;;;;;5045859;28;20431;-60
2022/08/29 23:21:25;;;;;;;4.82;3.53;;;14.50;99.90;;;;;;5042171;28;20488;-60
2022/08/29 23:23:51;;;;;;;5.20;4.03;;;14.40;99.90;;;;;;5044253;28;20103;-60
2022/08/29 23:26:18;;;;;;;4.35;3.95;;;14.40;99.90;;;;;;5041679;28;20129;-60
2022/08/29 23:28:43;;;;;;;8.45;3.60;;;14.30;99.90;;;;;;5049413;28;20025;-60
2022/08/29 23:31:09;;;;;;;6.68;4.28;;;14.30;99.90;;;;;;5043639;28;20025;-60
2022/08/29 23:33:35;;;;;;;5.13;4.07;;;14.20;99.90;;;;;;5045237;28;20029;-60
2022/08/29 23:36:01;;;;;;;6.10;3.95;;;14.20;99.90;;;;;;5038210;28;20430;-60
2022/08/29 23:38:26;;;;;;;6.60;3.85;;;14.10;99.90;;;;;;5045302;28;20108;-60
2022/08/29 23:40:52;;;;;;;4.18;3.78;;;14.10;99.90;;;;;;5045080;28;20499;-60
2022/08/29 23:43:19;;;;;;;6.93;3.78;;;14.00;99.90;;;;;;5046302;28;20025;-60
2022/08/29 23:45:46;;;;;;;4.65;4.13;;;13.90;99.90;;;;;;5039318;28;20646;-60
2022/08/29 23:48:12;;;;;;;5.40;4.20;;;13.90;99.90;;;;;;5046387;28;20116;-60
2022/08/29 23:50:37;;;;;;;4.57;3.95;;;13.80;99.90;;;;;;5043562;28;20115;-60
2022/08/29 23:53:03;;;;;;;7.78;4.57;;;13.80;99.90;;;;;;5043457;28;20047;-60
2022/08/29 23:55:29;;;;;;;7.03;4.13;;;13.80;99.90;;;;;;5040436;28;20044;-60
2022/08/29 23:57:55;;;;;;;4.20;3.50;;;13.70;99.90;;;;;;5042834;28;20484;-60
